New Pine Creek, Oregon
Current Conditions -  °F | °C
As of 4:55 AM on Saturday 25 Oct 2014 (Local Time) from KLKV Reporting Station
Clear Clear  
Wind Chill: 40°   Ceiling: Unl
Heat Index: 45°   Visibility: 10mi
Dew Point: 30°   Wind: 9mph
Humidity: 57%   Direction: 190°S
Pressure: 29.81"   Gusts: NA
Location:  42°N, 120.3°W
Report Text: KLKV 251155Z AUTO 19008KT 10SM CLR 07/M01 A2981 RMK AO1 10120 20070 57030
Loading
Personal Weather Stations






























Interactive Weather Map
Tropical Storm Tracking
New forecast layout! Learn more

10-Day Weather Forecast

Advertisements
Track Severe Weather on mobile